53.1
Current conditions from King Hill
Updated every 5 minutes
 
  Thursday September 20, 2018

Observations for Westford

Westford

44° 37' 38"N, 73° 02' 29"W, Elevation 850 ft.
Eastern Time

Hourly observations for the last 72 hours

Date Time Temperature (°F) Humi-
dity

(%)
Wind
(mph)
Pressure Rain (in)
Air Dew 6 Hour 1 Hr 3 Hr 6 Hr Day
Alt
(in)
Sea
Level

(mb)
Max Min
20 08:00 52.5 51.4 52.6 46.0 96 Calm 30.20 1022.7 0.00
20 07:00 50.5 49.4 96 Calm 30.17 1021.8 0.00
20 06:00 50.4 49.3 96 Calm 30.14 1020.5 0.00
20 05:00 48.8 47.7 96 Calm 30.12 1020.0 0.00
20 04:00 46.0 44.6 95 Calm 30.11 1019.7 0.00
20 03:00 48.2 46.6 94 Calm 30.12 1020.0 0.00
20 02:00 51.4 50.0 53.1 51.3 95 Calm 30.12 1020.1 0.00
20 01:00 52.0 50.3 94 Calm 30.11 1019.6 0.00
20 00:00 51.8 50.1 94 Calm 30.11 1019.8 0.00
19 23:00 51.6 49.4 92 Calm 30.10 1019.3 0.00
19 22:00 52.4 49.9 91 Calm 30.10 1019.3 0.00
19 21:00 52.8 50.0 90 Calm 30.10 1019.3 0.00
19 20:00 53.0 49.5 64.6 52.8 88 Calm 30.09 1018.9 0.00
19 19:00 53.4 49.6 87 Calm 30.06 1017.9 0.00
19 18:00 55.1 50.4 84 Calm 30.05 1017.7 0.00
19 17:00 55.9 50.2 81 Calm 30.02 1016.8 0.00
19 16:00 58.6 51.1 76 NW 0 G 5 30.02 1016.8 0.00
19 15:00 64.4 52.8 66 NNE 0 G 7 29.99 1015.5 0.00
19 14:00 61.1 51.3 63.8 51.2 70 N 0 G 9 29.99 1015.6 0.00
19 13:00 62.6 54.2 74 NNW 0 G 5 30.00 1015.9 0.00
19 12:00 59.5 53.3 80 WNW 0 G 8 29.99 1015.7 0.00
19 11:00 55.5 51.1 85 NNE 1 G 6 29.99 1015.6 0.00
19 10:00 54.5 50.7 87 Calm 29.97 1015.1 0.00
19 09:00 52.5 50.0 91 Calm 29.95 1014.4 0.00
19 08:00 51.2 49.5 53.5 49.6 94 Calm 29.93 1013.7 0.00
19 07:00 49.7 48.0 94 Calm 29.90 1012.7 0.00
19 06:00 49.7 48.0 94 Calm 29.88 1011.9 0.00
19 05:00 50.4 48.7 94 Calm 29.86 1011.1 0.00
19 04:00 52.1 50.7 95 Calm 29.84 1010.5 0.00
19 03:00 52.8 51.4 95 Calm 29.83 1010.3 0.00
19 02:00 53.5 52.1 64.0 53.5 95 Calm 29.82 1009.8 0.00
19 01:00 53.9 52.5 95 Calm 29.81 1009.5 0.00
19 00:00 54.3 52.9 95 Calm 29.79 1008.9 0.00
18 23:00 55.7 54.0 94 Calm 29.80 1009.0 0.00
18 22:00 59.1 57.4 94 Calm 29.77 1008.3 0.00
18 21:00 60.8 58.8 93 Calm 29.77 1008.2 0.00
18 20:00 64.0 61.0 79.6 64.0 90 Calm 29.75 1007.5 0.00
18 19:00 68.4 64.1 86 Calm 29.73 1006.7 0.00
18 18:00 73.4 66.1 78 NW 0 G 4 29.70 1005.7 0.00
18 17:00 76.3 67.8 75 WNW 0 G 2 29.68 1005.0 0.00
18 16:00 75.8 67.3 75 NW 0 G 10 29.68 1005.1 0.00
18 15:00 79.0 69.6 73 WNW 0 G 6 29.69 1005.4 0.00
18 14:00 76.7 68.2 78.8 66.5 75 NW 0 G 6 29.69 1005.4 0.00
18 13:00 78.7 69.3 73 Calm 29.69 1005.4 0.00
18 12:00 75.3 67.6 77 WNW 0 G 6 29.70 1005.8 0.00
18 11:00 73.1 67.3 82 Calm 29.71 1006.3 0.00
18 10:00 70.1 67.7 92 Calm 29.72 1006.4 0.00
18 09:00 67.5 66.0 95 Calm 29.72 1006.6 0.00
18 08:00 66.5 65.3 66.6 63.5 96 SW 0 G 5 29.73 1006.9 0.00
18 07:00 63.5 62.0 95 Calm 29.73 1006.8 0.00
18 06:00 65.0 63.5 95 Calm 29.74 1007.2 0.00
18 05:00 65.0 62.9 93 SW 0 G 5 29.75 1007.6 0.00
18 04:00 65.6 63.8 94 Calm 29.77 1008.1 0.00
18 03:00 66.0 64.2 94 SSW 1 G 8 29.78 1008.4 0.00
18 02:00 66.3 63.9 69.3 66.1 92 SSW 0 G 4 29.79 1008.8 0.00
18 01:00 66.6 64.2 92 S 3 G 10 29.81 1009.3 0.00
18 00:00 66.6 63.6 90 SW 0 G 5 29.83 1010.1 0.00
17 23:00 67.2 63.2 87 SSW 0 G 7 29.83 1010.2 0.00
17 22:00 67.6 62.3 83 SSW 0 G 6 29.83 1010.0 0.00
17 21:00 68.0 62.0 81 W 0 G 8 29.82 1009.9 0.00
17 20:00 69.3 62.9 83.1 69.3 80 SSW 0 G 9 29.82 1009.9 0.00
17 19:00 71.5 63.2 75 SSW 2 G 12 29.83 1010.2 0.00
17 18:00 75.2 64.8 70 SSW 1 G 9 29.83 1010.3 0.00
17 17:00 80.9 65.7 60 SSW 1 G 11 29.84 1010.7 0.00
17 16:00 81.6 65.4 58 SW 6 G 14 29.86 1011.2 0.00
17 15:00 82.6 65.3 56 SW 5 G 13 29.88 1012.0 0.00
17 14:00 82.1 65.9 82.7 67.0 58 S 3 G 14 29.91 1012.8 0.00
17 13:00 82.5 67.2 60 SW 3 G 8 29.93 1013.6 0.00
17 12:00 80.5 67.7 65 SW 2 G 12 29.96 1014.5 0.00
17 11:00 79.0 70.0 74 SW 0 G 9 29.99 1015.5 0.00
17 10:00 76.1 69.1 79 WSW 1 G 13 30.01 1016.2 0.00
17 09:00 70.7 67.3 89 SW 1 G 14 30.02 1016.7 0.00

Data generated by WxSolution Version 1.9.1.6, Build 2018.07.01.


 
 
Current Radar Loop:

Copyright © WestfordWeather.net 2007-2018. All rights reserved.